createdAt,value
2023-08-26T00:02:34.383Z,226.72
2023-08-26T09:31:36.601Z,182.24
2023-08-26T09:36:36.581Z,177.82
2023-08-26T09:41:36.465Z,177.82
2023-08-26T09:46:36.444Z,176.15
2023-08-26T09:51:36.327Z,175.60
2023-08-26T09:56:36.242Z,176.52
2023-08-26T10:01:36.202Z,177.44
2023-08-26T10:06:36.145Z,176.33
2023-08-26T10:11:36.051Z,175.60
2023-08-26T10:16:36.069Z,173.08
2023-08-26T10:21:35.906Z,171.49
2023-08-26T10:26:35.861Z,171.67
2023-08-26T10:31:35.807Z,167.58
2023-08-26T10:36:35.743Z,167.58
2023-08-26T10:41:35.735Z,171.32
2023-08-26T10:46:35.624Z,173.25
2023-08-26T10:51:35.512Z,174.15
2023-08-26T10:56:35.582Z,178.01
2023-08-26T11:01:35.447Z,176.70
2023-08-26T11:06:35.351Z,175.23
2023-08-26T11:11:35.280Z,178.01
2023-08-26T11:16:35.261Z,179.33
2023-08-26T11:21:35.159Z,188.79
2023-08-26T11:26:35.092Z,195.01
2023-08-26T11:31:35.081Z,198.86
2023-08-26T11:36:34.982Z,204.50
2023-08-26T11:41:34.925Z,208.88
2023-08-26T11:46:34.824Z,215.11
2023-08-26T11:51:34.800Z,215.25
2023-08-26T11:56:34.705Z,217.36
2023-08-26T12:01:34.640Z,217.93
2023-08-26T12:06:34.598Z,217.50
2023-08-26T12:11:34.809Z,220.54
2023-08-26T12:16:34.559Z,224.42
2023-08-26T12:21:34.378Z,233.25
2023-08-26T12:26:34.343Z,235.07
2023-08-26T12:31:34.304Z,236.07
2023-08-26T12:36:34.246Z,236.41
2023-08-26T12:41:34.125Z,241.93
2023-08-26T12:46:34.083Z,246.97
2023-08-26T12:51:34.013Z,249.01
2023-08-26T12:56:33.971Z,255.13
2023-08-26T13:01:33.900Z,259.73
2023-08-26T13:06:33.867Z,264.07
2023-08-26T13:11:33.734Z,268.34
2023-08-26T13:16:33.712Z,271.64
2023-08-26T13:21:33.613Z,274.78
2023-08-26T13:26:33.590Z,276.62
2023-08-26T13:31:33.665Z,276.39
2023-08-26T13:36:45.905Z,275.70
2023-08-26T13:41:34.356Z,276.85
2023-08-26T13:46:33.412Z,277.77
2023-08-26T13:51:33.225Z,282.26
2023-08-26T13:56:33.223Z,286.16
2023-08-26T14:04:02.655Z,287.90
2023-08-26T14:09:02.550Z,290.42
2023-08-26T14:14:02.494Z,289.15
2023-08-26T14:19:02.633Z,293.24
2023-08-26T14:24:02.344Z,296.38
2023-08-26T14:29:02.262Z,295.86
2023-08-26T14:34:02.257Z,295.07
2023-08-26T14:39:02.139Z,294.54
2023-08-26T14:44:02.119Z,295.86
2023-08-26T14:49:02.024Z,300.95
2023-08-26T14:54:01.993Z,300.95
2023-08-26T14:59:01.900Z,299.33
2023-08-26T15:04:01.873Z,302.33
2023-08-26T15:09:01.744Z,304.55
2023-08-26T15:14:01.688Z,307.94
2023-08-26T15:19:01.645Z,314.65
2023-08-26T15:24:01.571Z,317.97
2023-08-26T15:29:01.517Z,323.24
2023-08-26T15:34:01.458Z,324.82
2023-08-26T15:39:01.347Z,325.46
2023-08-26T15:44:01.300Z,325.77
2023-08-26T15:49:01.215Z,328.68
2023-08-26T15:54:01.178Z,328.35
2023-08-26T15:59:01.110Z,331.97
2023-08-26T16:04:01.073Z,329.33
2023-08-26T16:09:00.984Z,329.33
2023-08-26T16:14:00.891Z,329.99
2023-08-26T16:19:00.848Z,331.97
2023-08-26T16:24:00.808Z,327.06
2023-08-26T16:29:00.708Z,330.32
2023-08-26T16:34:00.673Z,336.68
2023-08-26T16:39:00.619Z,338.06
2023-08-26T16:44:00.557Z,339.79
2023-08-26T16:49:00.487Z,345.09
2023-08-26T16:54:00.406Z,346.53
2023-08-26T16:59:00.309Z,345.81
2023-08-26T17:04:00.654Z,344.37
2023-08-26T17:09:00.207Z,345.81
2023-08-26T17:14:00.126Z,340.48
2023-08-26T17:19:00.222Z,340.48
2023-08-26T17:23:59.977Z,340.14
2023-08-26T17:28:59.928Z,346.53
2023-08-26T17:33:59.834Z,351.67
2023-08-26T17:38:59.777Z,355.82
2023-08-26T17:43:59.752Z,357.35
2023-08-26T17:48:59.655Z,361.24
2023-08-26T17:53:59.593Z,364.42
2023-08-26T17:58:59.583Z,362.03
2023-08-26T18:03:59.534Z,357.74
2023-08-26T18:08:59.401Z,356.97
2023-08-26T18:13:59.356Z,355.82
2023-08-26T18:18:59.265Z,353.92
2023-08-26T18:23:59.278Z,356.97
2023-08-26T18:28:59.332Z,355.44
2023-08-26T18:33:59.094Z,353.92
2023-08-26T18:38:58.977Z,350.19
2023-08-26T18:43:58.970Z,350.19
2023-08-26T18:48:58.864Z,348.35
2023-08-26T18:53:58.831Z,350.19
2023-08-26T18:58:58.848Z,349.08
2023-08-26T19:03:58.770Z,351.30
2023-08-26T19:08:58.623Z,353.17
2023-08-26T19:13:58.802Z,355.06
2023-08-26T19:18:58.491Z,357.35
2023-08-26T19:23:58.443Z,356.97
2023-08-26T19:28:58.355Z,359.68
2023-08-26T19:33:58.298Z,359.29
2023-08-26T19:38:58.213Z,362.82
2023-08-26T19:43:58.158Z,362.82
2023-08-26T19:48:58.349Z,363.62
2023-08-26T19:53:58.137Z,364.42
2023-08-26T19:58:58.014Z,364.42
2023-08-26T20:03:57.962Z,365.22
2023-08-26T20:08:57.805Z,366.43
2023-08-26T20:13:57.753Z,367.24
2023-08-26T20:18:57.643Z,371.77
2023-08-26T20:23:57.761Z,370.52
2023-08-26T20:28:57.528Z,373.86
2023-08-26T20:33:57.493Z,379.05
2023-08-26T20:38:57.543Z,375.98
2023-08-26T20:43:57.388Z,379.90
2023-08-26T20:48:57.300Z,381.62
2023-08-26T20:53:57.300Z,382.92
2023-08-26T20:58:57.358Z,385.55
2023-08-26T21:03:57.110Z,386.43
2023-08-26T21:08:56.991Z,386.21
2023-08-26T21:13:56.963Z,390.01
2023-08-26T21:18:56.878Z,390.91
2023-08-26T21:23:56.852Z,393.19
2023-08-26T21:28:56.738Z,394.34
2023-08-26T21:33:56.682Z,394.34
2023-08-26T21:38:56.595Z,396.20
2023-08-26T21:43:56.907Z,398.54
2023-08-26T21:48:56.495Z,400.67
2023-08-26T21:53:56.411Z,399.72
2023-08-26T21:58:56.351Z,400.19
2023-08-26T22:03:56.301Z,402.58
2023-08-26T22:08:56.188Z,403.30
2023-08-26T22:13:56.182Z,405.98
2023-08-26T22:18:56.193Z,407.45
2023-08-26T22:23:56.009Z,407.94
2023-08-26T22:28:55.960Z,411.17
2023-08-26T22:33:55.960Z,407.94
2023-08-26T22:38:59.565Z,409.67
2023-08-26T22:43:56.747Z,409.43
2023-08-26T22:48:55.701Z,411.93
2023-08-26T22:53:55.619Z,410.17
2023-08-26T22:58:55.574Z,409.92
2023-08-26T23:03:55.458Z,409.43
2023-08-26T23:08:55.445Z,411.42
2023-08-26T23:13:55.332Z,409.43
2023-08-26T23:18:55.313Z,410.17
2023-08-26T23:23:55.606Z,412.68
2023-08-26T23:28:55.269Z,412.43
2023-08-26T23:33:57.397Z,412.94
2023-08-26T23:38:55.023Z,411.42
2023-08-26T23:43:54.963Z,410.92
2023-08-26T23:48:54.889Z,412.43
2023-08-26T23:53:54.802Z,410.42
2023-08-26T23:58:54.756Z,410.67
